Time;durP1;ratioP1;P1;durP2;ratioP2;P2;SDS_P1;SDS_P2;PMS_P1;PMS_P2;Temp;Humidity;BMP_temperature;BMP_pressure;BME280_temperature;BME280_humidity;BME280_pressure;Samples;Min_cycle;Max_cycle;Signal;HPM_P1;HPM_P2
2021/10/16 00:00:02;;;;;;;;;;;10.60;96.30;11.20;99760.00;;;;343309;28;82486;-92
2021/10/16 00:00:14;;;;;;;;;;;10.70;96.30;11.20;99756.00;;;;342694;28;90445;-92
2021/10/16 00:00:26;;;;;;;;;;;10.70;96.30;11.20;99751.00;;;;344467;28;83381;-92
2021/10/16 00:00:38;;;;;;;;;;;10.70;96.30;11.20;99751.00;;;;344062;28;90340;-92
2021/10/16 00:00:50;;;;;;;;;;;10.70;96.20;11.30;99748.00;;;;342121;28;83558;-92
2021/10/16 00:01:01;;;;;;;;;;;10.70;96.20;11.20;99758.00;;;;344253;28;90949;-92
2021/10/16 00:01:13;;;;;;;;;;;10.70;96.20;11.10;99752.00;;;;345851;28;83500;-92
2021/10/16 00:01:25;;;;;;;;;;;10.70;96.20;11.00;99749.00;;;;342806;28;90939;-92
2021/10/16 00:01:37;;;;;;;;;;;10.70;96.20;11.00;99743.00;;;;344625;28;83463;-92
2021/10/16 00:01:49;;;;;;;;;;;10.70;96.30;11.00;99744.00;;;;343099;28;91610;-93
2021/10/16 00:02:01;;;;;;;;;;;10.70;96.30;10.90;99742.00;;;;344650;28;83441;-92
2021/10/16 00:02:14;;;;;;;;;;;10.70;96.30;11.00;99747.00;;;;345200;28;92059;-92
2021/10/16 00:02:26;;;;;;;;;;;10.70;96.40;10.90;99740.00;;;;342990;28;83543;-92
2021/10/16 00:02:38;;;;;;;;;;;10.60;96.40;11.00;99739.00;;;;343988;28;90113;-92
2021/10/16 00:02:50;;;;;;;;;;;10.60;96.40;11.00;99754.00;;;;343013;28;83558;-92
2021/10/16 00:03:02;;;;;;;;;;;10.60;96.40;11.10;99752.00;;;;341392;28;89183;-92
2021/10/16 00:03:14;;;;;;;;;;;10.60;96.30;11.10;99754.00;;;;343123;28;83389;-93
2021/10/16 00:03:26;;;;;;;;;;;10.70;96.40;11.00;99746.00;;;;342626;28;89850;-93
2021/10/16 00:03:39;;;;;;;;;;;10.60;96.40;11.00;99749.00;;;;343203;28;83500;-92
2021/10/16 00:03:51;;;;;;;;;;;10.60;96.30;11.10;99753.00;;;;344128;28;90916;-93
2021/10/16 00:04:03;;;;;;;;;;;10.60;96.30;11.10;99741.00;;;;345459;28;82416;-92
2021/10/16 00:04:14;;;;;;;;;;;10.70;96.30;11.20;99744.00;;;;342741;28;90093;-92
2021/10/16 00:04:26;;;;;;;;;;;10.70;96.40;11.20;99742.00;;;;345810;28;83365;-92
2021/10/16 00:04:38;;;;;;;;;;;10.70;96.30;11.20;99750.00;;;;342731;28;89559;-93
2021/10/16 00:04:50;;;;;;;;;;;10.70;96.30;11.20;99748.00;;;;344587;28;83525;-92
2021/10/16 00:05:02;;;;;;;;;;;10.70;96.20;11.20;99745.00;;;;344042;28;90067;-92
2021/10/16 00:05:14;;;;;;;;;;;10.70;96.20;11.20;99748.00;;;;344634;28;83478;-92
2021/10/16 00:05:26;;;;;;;;;;;10.70;96.20;11.20;99746.00;;;;341476;28;89737;-93
2021/10/16 00:05:38;;;;;;;;;;;10.70;96.30;11.20;99744.00;;;;343301;28;83525;-92
2021/10/16 00:05:49;;;;;;;;;;;10.70;96.20;11.20;99741.00;;;;341605;28;91407;-92
2021/10/16 00:06:01;;;;;;;;;;;10.70;96.20;11.20;99736.00;;;;344412;28;83530;-93
2021/10/16 00:06:13;;;;;;;;;;;10.70;96.20;11.20;99743.00;;;;342766;28;91511;-92
2021/10/16 00:06:25;;;;;;;;;;;10.70;96.20;11.00;99743.00;;;;343183;28;83390;-92
2021/10/16 00:06:37;;;;;;;;;;;10.70;96.20;11.10;99748.00;;;;345491;28;89196;-92
2021/10/16 00:06:48;;;;;;;;;;;10.70;96.20;11.10;99747.00;;;;344561;28;83433;-92
2021/10/16 00:07:04;;;;;;;;;;;10.70;96.20;11.10;99740.00;;;;344188;28;89317;-93
2021/10/16 00:07:16;;;;;;;;;;;10.70;96.10;11.20;99747.00;;;;343080;28;83527;-92
2021/10/16 00:07:28;;;;;;;;;;;10.70;96.10;11.20;99753.00;;;;344083;28;89511;-92
2021/10/16 00:07:40;;;;;;;;;;;10.70;96.10;11.20;99744.00;;;;343247;28;83698;-93
2021/10/16 00:07:51;;;;;;;;;;;10.70;96.20;11.00;99752.00;;;;341647;28;90270;-92
2021/10/16 00:08:03;;;;;;;;;;;10.70;96.10;11.10;99744.00;;;;344565;28;82622;-92
2021/10/16 00:08:15;;;;;;;;;;;10.70;96.10;11.20;99744.00;;;;342798;28;89903;-92
2021/10/16 00:08:27;;;;;;;;;;;10.70;96.10;11.20;99746.00;;;;343426;28;83343;-92
2021/10/16 00:08:39;;;;;;;;;;;10.70;96.10;11.20;99748.00;;;;342891;28;91391;-91
2021/10/16 00:08:51;;;;;;;;;;;10.70;96.10;11.20;99740.00;;;;342064;28;83349;-92
2021/10/16 00:09:03;;;;;;;;;;;10.70;96.10;11.20;99746.00;;;;341506;28;89348;-92
2021/10/16 00:09:15;;;;;;;;;;;10.70;96.10;11.10;99746.00;;;;343173;28;82602;-93
2021/10/16 00:09:27;;;;;;;;;;;10.70;96.10;11.10;99748.00;;;;341342;28;90580;-92
2021/10/16 00:09:39;;;;;;;;;;;10.70;96.00;11.00;99748.00;;;;344224;28;83530;-92
2021/10/16 00:09:50;;;;;;;;;;;10.70;96.00;11.00;99744.00;;;;342722;28;91008;-93
2021/10/16 00:10:03;;;;;;;;;;;10.70;96.00;11.00;99740.00;;;;342028;28;83445;-92
2021/10/16 00:10:15;;;;;;;;;;;10.70;96.10;11.00;99739.00;;;;344320;28;91132;-92
2021/10/16 00:10:27;;;;;;;;;;;10.70;96.10;11.00;99742.00;;;;343227;28;82587;-92
2021/10/16 00:10:38;;;;;;;;;;;10.70;96.10;11.00;99744.00;;;;343968;28;90547;-92
2021/10/16 00:10:50;;;;;;;;;;;10.70;96.10;11.00;99747.00;;;;343390;28;83284;-93
2021/10/16 00:11:02;;;;;;;;;;;10.70;96.10;11.00;99747.00;;;;344250;28;90467;-93
2021/10/16 00:11:14;;;;;;;;;;;10.70;96.10;10.90;99739.00;;;;344587;28;83505;-92
2021/10/16 00:11:26;;;;;;;;;;;10.70;96.10;11.00;99747.00;;;;342975;28;91746;-93
2021/10/16 00:11:37;;;;;;;;;;;10.70;96.10;11.10;99751.00;;;;344719;28;82442;-93
2021/10/16 00:11:49;;;;;;;;;;;10.70;96.10;11.20;99745.00;;;;344307;28;91757;-92
2021/10/16 00:12:02;;;;;;;;;;;10.70;96.20;11.20;99744.00;;;;344651;28;83469;-92
2021/10/16 00:12:13;;;;;;;;;;;10.70;96.20;11.20;99742.00;;;;344130;28;91431;-92
2021/10/16 00:12:25;;;;;;;;;;;10.70;96.10;11.10;99746.00;;;;343150;28;83517;-92
2021/10/16 00:12:37;;;;;;;;;;;10.70;96.10;11.00;99750.00;;;;342729;28;90494;-92
2021/10/16 00:12:49;;;;;;;;;;;10.70;96.00;11.10;99742.00;;;;343071;28;83416;-93
2021/10/16 00:13:01;;;;;;;;;;;10.70;96.00;11.00;99743.00;;;;343962;28;90118;-92
2021/10/16 00:13:13;;;;;;;;;;;10.70;96.10;10.90;99749.00;;;;344478;28;83462;-93
2021/10/16 00:13:25;;;;;;;;;;;10.70;96.20;10.90;99750.00;;;;344078;28;89241;-92
2021/10/16 00:13:38;;;;;;;;;;;10.60;96.20;11.00;99748.00;;;;343241;28;82582;-93
2021/10/16 00:13:50;;;;;;;;;;;10.70;96.20;11.10;99743.00;;;;342689;28;90651;-92
2021/10/16 00:14:01;;;;;;;;;;;10.70;96.20;11.10;99748.00;;;;343262;28;82617;-92
2021/10/16 00:14:13;;;;;;;;;;;10.70;96.20;11.20;99747.00;;;;342896;28;92765;-92
2021/10/16 00:14:25;;;;;;;;;;;10.70;96.20;11.10;99748.00;;;;343462;28;83337;-92
2021/10/16 00:14:37;;;;;;;;;;;10.70;96.20;11.00;99752.00;;;;341586;28;90912;-93
2021/10/16 00:14:49;;;;;;;;;;;10.70;96.20;11.10;99752.00;;;;341687;28;83571;-92
2021/10/16 00:15:00;;;;;;;;;;;10.70;96.20;11.20;99748.00;;;;344081;28;90723;-92
2021/10/16 00:15:12;;;;;;;;;;;10.70;96.20;11.20;99751.00;;;;343138;28;82487;-93
2021/10/16 00:15:25;;;;;;;;;;;10.70;96.10;11.20;99756.00;;;;342873;28;90419;-93
2021/10/16 00:15:37;;;;;;;;;;;10.70;96.10;11.10;99749.00;;;;343345;28;83418;-92
2021/10/16 00:15:49;;;;;;;;;;;10.70;96.20;11.10;99751.00;;;;342944;28;90552;-93
2021/10/16 00:16:01;;;;;;;;;;;10.70;96.10;11.00;99750.00;;;;344723;28;83426;-92
2021/10/16 00:16:13;;;;;;;;;;;10.70;96.10;11.10;99751.00;;;;342931;28;91538;-93
2021/10/16 00:16:25;;;;;;;;;;;10.70;96.10;11.10;99750.00;;;;343225;28;83425;-93
2021/10/16 00:16:37;;;;;;;;;;;10.70;96.10;11.10;99747.00;;;;341422;28;89493;-92
2021/10/16 00:16:48;;;;;;;;;;;10.70;96.10;11.00;99756.00;;;;344458;28;83406;-92
2021/10/16 00:17:00;;;;;;;;;;;10.70;96.10;11.00;99749.00;;;;342598;28;90422;-92
2021/10/16 00:17:12;;;;;;;;;;;10.70;96.10;11.00;99753.00;;;;344558;28;83521;-93
2021/10/16 00:17:24;;;;;;;;;;;10.70;96.10;10.90;99753.00;;;;341581;28;90258;-93
2021/10/16 00:17:36;;;;;;;;;;;10.70;96.20;10.90;99755.00;;;;343209;28;83385;-92
2021/10/16 00:17:48;;;;;;;;;;;10.60;96.30;10.90;99750.00;;;;342703;28;89772;-92
2021/10/16 00:18:00;;;;;;;;;;;10.60;96.30;10.90;99750.00;;;;344364;28;83483;-92
2021/10/16 00:18:11;;;;;;;;;;;10.60;96.30;10.80;99754.00;;;;342676;28;91646;-92
2021/10/16 00:18:23;;;;;;;;;;;10.60;96.20;10.90;99753.00;;;;342978;28;83536;-93
2021/10/16 00:18:35;;;;;;;;;;;10.60;96.30;10.90;99746.00;;;;344263;28;90543;-91
2021/10/16 00:18:47;;;;;;;;;;;10.60;96.30;11.00;99756.00;;;;344629;28;82576;-93
2021/10/16 00:18:59;;;;;;;;;;;10.60;96.30;11.00;99753.00;;;;344176;28;90533;-92
2021/10/16 00:19:11;;;;;;;;;;;10.60;96.30;11.10;99757.00;;;;343455;28;82531;-92
2021/10/16 00:19:22;;;;;;;;;;;10.60;96.30;11.00;99753.00;;;;342890;28;89844;-93
2021/10/16 00:19:34;;;;;;;;;;;10.60;96.30;10.90;99751.00;;;;343382;28;83494;-92
2021/10/16 00:19:46;;;;;;;;;;;10.60;96.40;10.90;99747.00;;;;344281;28;91047;-92
2021/10/16 00:19:58;;;;;;;;;;;10.60;96.50;11.00;99743.00;;;;343357;28;83484;-92
2021/10/16 00:20:10;;;;;;;;;;;10.60;96.40;11.00;99750.00;;;;345443;28;90649;-92
2021/10/16 00:20:22;;;;;;;;;;;10.60;96.40;11.00;99749.00;;;;343160;28;84029;-92
2021/10/16 00:20:37;;;;;;;;;;;10.50;96.40;10.90;99749.00;;;;343989;28;89511;-93
2021/10/16 00:20:49;;;;;;;;;;;10.60;96.40;10.90;99748.00;;;;344571;28;83581;-92
2021/10/16 00:21:01;;;;;;;;;;;10.60;96.70;11.00;99751.00;;;;345480;28;89457;-92
2021/10/16 00:21:12;;;;;;;;;;;10.50;96.40;11.00;99746.00;;;;344785;28;83434;-92
2021/10/16 00:21:24;;;;;;;;;;;10.60;96.40;11.00;99748.00;;;;342706;28;90030;-93
2021/10/16 00:21:37;;;;;;;;;;;10.60;96.50;11.00;99750.00;;;;343259;28;83566;-92
2021/10/16 00:21:48;;;;;;;;;;;10.60;96.50;10.90;99752.00;;;;342828;28;90673;-92
2021/10/16 00:22:00;;;;;;;;;;;10.60;96.50;11.00;99748.00;;;;343130;28;83509;-92
2021/10/16 00:22:12;;;;;;;;;;;10.50;96.40;11.00;99749.00;;;;344122;28;91444;-92
2021/10/16 00:22:24;;;;;;;;;;;10.50;96.50;10.90;99747.00;;;;341989;28;83466;-93
2021/10/16 00:22:36;;;;;;;;;;;10.60;96.50;11.00;99750.00;;;;345602;28;89444;-92
2021/10/16 00:22:48;;;;;;;;;;;10.60;96.40;10.90;99753.00;;;;346040;28;83908;-92
2021/10/16 00:23:00;;;;;;;;;;;10.50;96.40;10.90;99747.00;;;;343025;28;89601;-92
2021/10/16 00:23:11;;;;;;;;;;;10.60;96.40;10.90;99751.00;;;;346037;28;83502;-92
2021/10/16 00:23:23;;;;;;;;;;;10.50;96.30;10.90;99751.00;;;;345566;28;89456;-92
2021/10/16 00:23:35;;;;;;;;;;;10.50;96.30;10.90;99752.00;;;;343243;28;83336;-92
2021/10/16 00:23:47;;;;;;;;;;;10.60;96.40;10.90;99754.00;;;;345669;28;90333;-92
2021/10/16 00:23:59;;;;;;;;;;;10.50;96.40;10.90;99752.00;;;;346039;28;83492;-92
2021/10/16 00:24:10;;;;;;;;;;;10.50;96.50;10.90;99749.00;;;;344162;28;91485;-92
2021/10/16 00:24:22;;;;;;;;;;;10.50;96.40;11.00;99751.00;;;;344989;28;82557;-92
2021/10/16 00:24:34;;;;;;;;;;;10.50;96.50;11.10;99745.00;;;;341625;28;90579;-93
2021/10/16 00:24:47;;;;;;;;;;;10.50;96.50;11.10;99754.00;;;;345005;28;83453;-93
2021/10/16 00:24:59;;;;;;;;;;;10.50;96.50;11.10;99752.00;;;;341721;28;90533;-93
2021/10/16 00:25:11;;;;;;;;;;;10.60;96.50;11.00;99746.00;;;;346338;28;82543;-93
2021/10/16 00:25:23;;;;;;;;;;;10.60;96.40;10.90;99748.00;;;;344204;28;90710;-92
2021/10/16 00:25:35;;;;;;;;;;;10.60;96.50;10.90;99749.00;;;;346160;28;83604;-92
2021/10/16 00:25:46;;;;;;;;;;;10.60;96.50;10.90;99752.00;;;;344406;28;90581;-93
2021/10/16 00:25:58;;;;;;;;;;;10.60;96.40;11.00;99755.00;;;;347487;28;83473;-93
2021/10/16 00:26:10;;;;;;;;;;;10.60;96.40;10.90;99750.00;;;;345635;28;91513;-93
2021/10/16 00:26:22;;;;;;;;;;;10.50;96.40;11.00;99751.00;;;;344952;28;83291;-92
2021/10/16 00:26:34;;;;;;;;;;;10.60;96.40;11.00;99753.00;;;;345674;28;90425;-93
2021/10/16 00:26:45;;;;;;;;;;;10.60;96.40;11.00;99750.00;;;;342143;28;83625;-92
2021/10/16 00:26:57;;;;;;;;;;;10.60;96.40;11.00;99749.00;;;;345686;28;90557;-92
2021/10/16 00:27:09;;;;;;;;;;;10.60;96.40;11.00;99749.00;;;;343661;28;83334;-92
2021/10/16 00:27:21;;;;;;;;;;;10.60;96.40;11.00;99755.00;;;;345691;28;90158;-92
2021/10/16 00:27:33;;;;;;;;;;;10.60;96.70;10.90;99747.00;;;;344964;28;83511;-93
2021/10/16 00:27:44;;;;;;;;;;;10.50;96.50;10.90;99748.00;;;;344412;28;89430;-93
2021/10/16 00:27:56;;;;;;;;;;;10.50;96.50;10.90;99749.00;;;;346066;28;83473;-93
2021/10/16 00:28:08;;;;;;;;;;;10.60;96.50;10.90;99753.00;;;;345559;28;91786;-92
2021/10/16 00:28:20;;;;;;;;;;;10.60;96.60;11.00;99753.00;;;;346251;28;83529;-92
2021/10/16 00:28:32;;;;;;;;;;;10.50;96.50;11.00;99747.00;;;;341637;28;91147;-93
2021/10/16 00:28:44;;;;;;;;;;;10.50;96.50;11.00;99753.00;;;;346014;28;83479;-92
2021/10/16 00:28:56;;;;;;;;;;;10.50;96.50;11.00;99749.00;;;;344628;28;90416;-92
2021/10/16 00:29:08;;;;;;;;;;;10.60;96.60;10.80;99757.00;;;;346286;28;82511;-92
2021/10/16 00:29:20;;;;;;;;;;;10.50;96.60;10.80;99746.00;;;;344526;28;90510;-92
2021/10/16 00:29:32;;;;;;;;;;;10.50;96.70;10.90;99751.00;;;;344953;28;83526;-92
2021/10/16 00:29:44;;;;;;;;;;;10.50;96.70;10.90;99758.00;;;;343174;28;90776;-92
2021/10/16 00:29:55;;;;;;;;;;;10.50;96.70;10.90;99753.00;;;;344892;28;82550;-93
2021/10/16 00:30:08;;;;;;;;;;;10.50;96.70;10.80;99759.00;;;;344346;28;90448;-92
2021/10/16 00:30:21;;;;;;;;;;;10.50;96.70;10.80;99754.00;;;;343664;28;82462;-92
2021/10/16 00:30:33;;;;;;;;;;;10.50;96.70;10.80;99753.00;;;;345941;28;91735;-92
2021/10/16 00:30:44;;;;;;;;;;;10.50;96.70;10.80;99757.00;;;;344883;28;82627;-93
2021/10/16 00:30:56;;;;;;;;;;;10.50;96.70;10.70;99751.00;;;;343056;28;90634;-92
2021/10/16 00:31:08;;;;;;;;;;;10.50;96.80;10.70;99751.00;;;;345032;28;83715;-92
2021/10/16 00:31:20;;;;;;;;;;;10.50;96.80;10.70;99763.00;;;;344541;28;89646;-92
2021/10/16 00:31:32;;;;;;;;;;;10.50;96.80;10.70;99759.00;;;;343594;28;82563;-92
2021/10/16 00:31:44;;;;;;;;;;;10.40;96.80;10.80;99758.00;;;;344589;28;90566;-92
2021/10/16 00:31:56;;;;;;;;;;;10.40;96.80;10.80;99748.00;;;;343596;28;83386;-92
2021/10/16 00:32:08;;;;;;;;;;;10.40;96.70;10.90;99759.00;;;;344495;28;91582;-92
2021/10/16 00:32:19;;;;;;;;;;;10.40;96.70;10.80;99753.00;;;;345009;28;82459;-93
2021/10/16 00:32:31;;;;;;;;;;;10.40;96.80;10.90;99754.00;;;;345817;28;90477;-92
2021/10/16 00:32:43;;;;;;;;;;;10.40;96.80;10.90;99756.00;;;;344699;28;83548;-92
2021/10/16 00:32:55;;;;;;;;;;;10.40;96.70;10.90;99749.00;;;;344415;28;91511;-92
2021/10/16 00:33:06;;;;;;;;;;;10.40;96.70;11.00;99752.00;;;;344730;28;83377;-92
2021/10/16 00:33:18;;;;;;;;;;;10.50;96.80;11.00;99753.00;;;;345572;28;91556;-92
2021/10/16 00:33:31;;;;;;;;;;;10.50;96.70;10.80;99763.00;;;;344618;28;83901;-92
2021/10/16 00:33:43;;;;;;;;;;;10.50;96.80;10.80;99760.00;;;;343035;28;89531;-93
2021/10/16 00:33:55;;;;;;;;;;;10.40;96.80;10.80;99755.00;;;;342020;28;82474;-92
2021/10/16 00:34:07;;;;;;;;;;;10.40;96.80;10.80;99761.00;;;;342943;28;90374;-93
2021/10/16 00:34:19;;;;;;;;;;;10.40;96.70;10.70;99758.00;;;;344852;28;83513;-92
2021/10/16 00:34:30;;;;;;;;;;;10.40;96.70;10.80;99757.00;;;;344458;28;91442;-92
2021/10/16 00:34:42;;;;;;;;;;;10.40;96.70;10.80;99761.00;;;;343607;28;82444;-92
2021/10/16 00:34:54;;;;;;;;;;;10.40;96.70;10.80;99754.00;;;;344621;28;90086;-92
2021/10/16 00:35:06;;;;;;;;;;;10.40;96.70;10.90;99762.00;;;;345085;28;83415;-93
2021/10/16 00:35:18;;;;;;;;;;;10.40;96.60;10.90;99758.00;;;;343163;28;90418;-93
2021/10/16 00:35:30;;;;;;;;;;;10.40;96.60;10.80;99756.00;;;;344944;28;82500;-92
2021/10/16 00:35:42;;;;;;;;;;;10.40;96.70;10.80;99766.00;;;;344300;28;90674;-93
2021/10/16 00:35:53;;;;;;;;;;;10.40;96.70;10.80;99755.00;;;;341693;28;83571;-92
2021/10/16 00:36:05;;;;;;;;;;;10.40;96.70;10.80;99761.00;;;;345371;28;91957;-92
2021/10/16 00:36:17;;;;;;;;;;;10.40;96.70;10.90;99760.00;;;;343395;28;83350;-93
2021/10/16 00:36:29;;;;;;;;;;;10.40;96.70;10.90;99759.00;;;;343034;28;91646;-92
2021/10/16 00:36:40;;;;;;;;;;;10.40;96.80;10.80;99762.00;;;;344690;28;83629;-92
2021/10/16 00:36:52;;;;;;;;;;;10.40;96.80;10.90;99753.00;;;;345682;28;90460;-92
2021/10/16 00:37:04;;;;;;;;;;;10.40;96.70;10.90;99766.00;;;;344797;28;83375;-92
2021/10/16 00:37:16;;;;;;;;;;;10.40;96.70;11.00;99763.00;;;;341591;28;91730;-93
2021/10/16 00:37:28;;;;;;;;;;;10.40;96.70;10.90;99761.00;;;;343442;28;83497;-92
2021/10/16 00:37:40;;;;;;;;;;;10.40;96.70;11.00;99767.00;;;;344319;28;90482;-93
2021/10/16 00:37:51;;;;;;;;;;;10.40;96.60;10.90;99764.00;;;;341883;28;83434;-93
2021/10/16 00:38:03;;;;;;;;;;;10.40;96.60;11.00;99766.00;;;;344065;28;92088;-92
2021/10/16 00:38:15;;;;;;;;;;;10.50;96.60;10.90;99762.00;;;;343400;28;83359;-93
2021/10/16 00:38:27;;;;;;;;;;;10.50;96.50;10.90;99760.00;;;;344289;28;90483;-93
2021/10/16 00:38:39;;;;;;;;;;;10.50;96.60;10.80;99763.00;;;;344646;28;82677;-92
2021/10/16 00:38:51;;;;;;;;;;;10.50;96.80;10.70;99763.00;;;;344333;28;91505;-92
2021/10/16 00:39:03;;;;;;;;;;;10.40;96.70;10.80;99759.00;;;;344774;28;83450;-93
2021/10/16 00:39:14;;;;;;;;;;;10.40;96.70;10.80;99768.00;;;;344369;28;90486;-92
2021/10/16 00:39:26;;;;;;;;;;;10.40;96.70;10.90;99762.00;;;;343394;28;83422;-93
2021/10/16 00:39:38;;;;;;;;;;;10.40;96.70;10.90;99768.00;;;;344253;28;89495;-92
2021/10/16 00:39:52;;;;;;;;;;;10.40;96.70;10.90;99763.00;;;;342314;28;82462;-93
2021/10/16 00:40:07;;;;;;;;;;;10.40;96.70;11.00;99762.00;;;;344621;28;91644;-93
2021/10/16 00:40:19;;;;;;;;;;;10.40;96.70;11.00;99764.00;;;;345168;28;82476;-92
2021/10/16 00:40:31;;;;;;;;;;;10.50;96.70;10.90;99764.00;;;;343327;28;91566;-93
2021/10/16 00:40:42;;;;;;;;;;;10.40;96.70;10.80;99771.00;;;;345098;28;83536;-93
2021/10/16 00:40:54;;;;;;;;;;;10.40;96.70;10.80;99763.00;;;;343469;28;89778;-93
2021/10/16 00:41:06;;;;;;;;;;;10.40;96.70;10.90;99770.00;;;;342552;28;82495;-92
2021/10/16 00:41:18;;;;;;;;;;;10.40;96.70;10.90;99765.00;;;;346045;28;90668;-93
2021/10/16 00:41:30;;;;;;;;;;;10.40;96.70;11.00;99764.00;;;;344053;28;82452;-92
2021/10/16 00:41:42;;;;;;;;;;;10.40;96.70;11.00;99768.00;;;;344843;28;90992;-93
2021/10/16 00:41:53;;;;;;;;;;;10.40;96.60;10.90;99760.00;;;;345346;28;82504;-93
2021/10/16 00:42:07;;;;;;;;;;;10.50;96.60;10.90;99765.00;;;;343410;28;92499;-92
2021/10/16 00:42:19;;;;;;;;;;;10.40;96.50;10.80;99769.00;;;;345333;28;82553;-93
2021/10/16 00:42:30;;;;;;;;;;;10.40;96.60;10.80;99766.00;;;;344847;28;91606;-92
2021/10/16 00:42:44;;;;;;;;;;;10.40;96.60;10.80;99767.00;;;;343762;28;83579;-93
2021/10/16 00:42:56;;;;;;;;;;;10.40;96.60;10.90;99776.00;;;;343444;28;90092;-92
2021/10/16 00:43:08;;;;;;;;;;;10.40;96.60;10.90;99773.00;;;;345123;28;82499;-93
2021/10/16 00:43:19;;;;;;;;;;;10.40;96.60;10.90;99765.00;;;;343438;28;90375;-91
2021/10/16 00:43:31;;;;;;;;;;;10.40;96.60;10.90;99773.00;;;;343927;28;82522;-93
2021/10/16 00:43:43;;;;;;;;;;;10.50;96.60;10.90;99763.00;;;;346055;28;90169;-93
2021/10/16 00:44:13;;;;;;;;;;;10.40;96.50;10.80;99772.00;;;;344908;28;83479;-93
2021/10/16 00:44:25;;;;;;;;;;;10.40;96.50;10.80;99769.00;;;;342914;28;90593;-92
2021/10/16 00:44:37;;;;;;;;;;;10.40;96.70;10.90;99769.00;;;;343671;28;82472;-92
2021/10/16 00:44:49;;;;;;;;;;;10.40;96.70;10.90;99766.00;;;;343108;28;89368;-92
2021/10/16 00:45:03;;;;;;;;;;;10.40;96.70;10.80;99772.00;;;;345224;28;83351;-93
2021/10/16 00:45:15;;;;;;;;;;;10.40;96.80;10.80;99764.00;;;;343247;28;90046;-93
2021/10/16 00:45:28;;;;;;;;;;;10.40;96.70;10.70;99777.00;;;;345015;28;83529;-93
2021/10/16 00:45:40;;;;;;;;;;;10.40;96.70;10.70;99774.00;;;;343128;28;89730;-92
2021/10/16 00:45:52;;;;;;;;;;;10.40;96.80;10.70;99761.00;;;;345008;28;82571;-92
2021/10/16 00:46:04;;;;;;;;;;;10.40;96.80;10.80;99764.00;;;;343126;28;90506;-93
2021/10/16 00:46:15;;;;;;;;;;;10.40;96.80;10.80;99765.00;;;;343729;28;83327;-92
2021/10/16 00:46:27;;;;;;;;;;;10.40;96.80;10.90;99765.00;;;;343398;28;91125;-93
2021/10/16 00:46:39;;;;;;;;;;;10.40;96.80;10.80;99767.00;;;;345327;28;82493;-93
2021/10/16 00:46:53;;;;;;;;;;;10.40;96.80;10.70;99766.00;;;;344728;28;91546;-92
2021/10/16 00:47:05;;;;;;;;;;;10.40;97.00;10.80;99767.00;;;;345405;28;83398;-93
2021/10/16 00:47:18;;;;;;;;;;;10.40;96.90;10.90;99763.00;;;;344718;28;89419;-92
2021/10/16 00:47:30;;;;;;;;;;;10.40;96.90;10.80;99766.00;;;;346775;28;83340;-92
2021/10/16 00:47:42;;;;;;;;;;;10.40;96.90;10.80;99767.00;;;;342118;28;87949;-92
2021/10/16 00:47:54;;;;;;;;;;;10.40;96.90;10.80;99759.00;;;;345296;28;83346;-92
2021/10/16 00:48:06;;;;;;;;;;;10.40;96.90;10.90;99763.00;;;;343517;28;91559;-92
2021/10/16 00:48:18;;;;;;;;;;;10.40;96.90;10.80;99762.00;;;;343805;28;82482;-92
2021/10/16 00:48:30;;;;;;;;;;;10.40;96.90;10.80;99765.00;;;;343511;28;92244;-93
2021/10/16 00:48:41;;;;;;;;;;;10.40;96.90;10.80;99761.00;;;;343608;28;83419;-92
2021/10/16 00:48:53;;;;;;;;;;;10.40;96.90;10.90;99757.00;;;;343243;28;90845;-93
2021/10/16 00:49:05;;;;;;;;;;;10.40;96.90;10.90;99760.00;;;;342572;28;83356;-92
2021/10/16 00:49:17;;;;;;;;;;;10.40;97.00;10.80;99763.00;;;;344615;28;91008;-92
2021/10/16 00:49:28;;;;;;;;;;;10.40;96.90;10.80;99762.00;;;;345404;28;82442;-93
2021/10/16 00:49:40;;;;;;;;;;;10.40;96.90;10.80;99765.00;;;;343483;28;90377;-92
2021/10/16 00:49:54;;;;;;;;;;;10.40;97.00;10.70;99761.00;;;;347858;28;82493;-93
2021/10/16 00:50:06;;;;;;;;;;;10.40;97.00;10.70;99768.00;;;;346088;28;91531;-92
2021/10/16 00:50:20;;;;;;;;;;;10.40;97.00;10.60;99768.00;;;;342440;28;83301;-92
2021/10/16 00:50:32;;;;;;;;;;;10.40;97.10;10.60;99766.00;;;;343141;28;92167;-92
2021/10/16 00:50:44;;;;;;;;;;;10.40;97.40;10.60;99763.00;;;;345221;28;82636;-93
2021/10/16 00:50:56;;;;;;;;;;;10.40;97.20;10.70;99767.00;;;;343368;28;89771;-92
2021/10/16 00:51:08;;;;;;;;;;;10.30;97.10;10.80;99761.00;;;;343731;28;83486;-92
2021/10/16 00:51:19;;;;;;;;;;;10.30;97.10;10.80;99762.00;;;;344645;28;90429;-93
2021/10/16 00:51:32;;;;;;;;;;;10.40;97.10;10.80;99761.00;;;;345102;28;82501;-92
2021/10/16 00:51:44;;;;;;;;;;;10.30;97.10;10.80;99762.00;;;;341960;28;91469;-93
2021/10/16 00:51:56;;;;;;;;;;;10.30;97.10;10.80;99770.00;;;;344916;28;82563;-92
2021/10/16 00:52:08;;;;;;;;;;;10.30;97.10;10.80;99764.00;;;;344854;28;91383;-93
2021/10/16 00:52:20;;;;;;;;;;;10.30;97.10;10.80;99765.00;;;;342240;28;82632;-92
2021/10/16 00:52:31;;;;;;;;;;;10.40;97.10;10.80;99762.00;;;;341995;28;91054;-93
2021/10/16 00:52:43;;;;;;;;;;;10.40;97.10;10.80;99770.00;;;;345132;28;82611;-92
2021/10/16 00:52:55;;;;;;;;;;;10.40;97.10;10.80;99758.00;;;;345011;28;90545;-92
2021/10/16 00:53:07;;;;;;;;;;;10.40;97.10;10.90;99762.00;;;;345424;28;83207;-92
2021/10/16 00:53:18;;;;;;;;;;;10.40;97.10;10.90;99757.00;;;;345846;28;90961;-92
2021/10/16 00:53:31;;;;;;;;;;;10.40;97.10;10.80;99761.00;;;;346526;28;83441;-92
2021/10/16 00:53:42;;;;;;;;;;;10.40;97.00;10.80;99766.00;;;;343496;28;90931;-92
2021/10/16 00:53:55;;;;;;;;;;;10.40;97.00;10.80;99762.00;;;;345174;28;82557;-92
2021/10/16 00:54:08;;;;;;;;;;;10.40;96.90;10.90;99767.00;;;;346245;28;90384;-93
2021/10/16 00:54:20;;;;;;;;;;;10.40;96.90;10.80;99761.00;;;;345067;28;82664;-92
2021/10/16 00:54:32;;;;;;;;;;;10.40;96.90;10.90;99761.00;;;;344904;28;91452;-92
2021/10/16 00:54:44;;;;;;;;;;;10.40;96.90;10.90;99765.00;;;;347182;28;82589;-91
2021/10/16 00:54:56;;;;;;;;;;;10.40;96.90;10.90;99768.00;;;;344332;28;89585;-92
2021/10/16 00:55:09;;;;;;;;;;;10.40;96.90;11.00;99759.00;;;;347541;28;82580;-93
2021/10/16 00:55:22;;;;;;;;;;;10.40;96.90;10.80;99761.00;;;;345731;28;90523;-92
2021/10/16 00:55:34;;;;;;;;;;;10.40;96.80;10.80;99763.00;;;;347752;28;82545;-92
2021/10/16 00:55:48;;;;;;;;;;;10.40;96.90;10.80;99761.00;;;;347225;28;90608;-92
2021/10/16 00:55:59;;;;;;;;;;;10.40;96.90;10.80;99765.00;;;;346317;28;83443;-93
2021/10/16 00:56:12;;;;;;;;;;;10.40;96.90;10.90;99760.00;;;;344380;28;90165;-93
2021/10/16 00:56:24;;;;;;;;;;;10.40;96.80;10.90;99766.00;;;;344857;28;82550;-92
2021/10/16 00:56:37;;;;;;;;;;;10.40;96.80;10.90;99751.00;;;;344502;28;91453;-92
2021/10/16 00:56:50;;;;;;;;;;;10.40;96.80;10.90;99757.00;;;;347547;28;82406;-92
2021/10/16 00:57:02;;;;;;;;;;;10.40;96.80;10.90;99757.00;;;;346093;28;90478;-92
2021/10/16 00:57:14;;;;;;;;;;;10.40;96.80;10.80;99765.00;;;;347736;28;82585;-92
2021/10/16 00:57:26;;;;;;;;;;;10.40;96.80;10.80;99762.00;;;;344131;28;90421;-92
2021/10/16 00:57:38;;;;;;;;;;;10.40;96.80;10.90;99760.00;;;;342915;28;82636;-94
2021/10/16 00:57:49;;;;;;;;;;;10.40;96.80;10.80;99762.00;;;;343111;28;90321;-92
2021/10/16 00:58:01;;;;;;;;;;;10.40;96.80;10.80;99762.00;;;;344688;28;82574;-92
2021/10/16 00:58:13;;;;;;;;;;;10.40;96.90;10.80;99759.00;;;;344443;28;90710;-93
2021/10/16 00:58:25;;;;;;;;;;;10.40;96.80;10.90;99762.00;;;;347576;28;82569;-93
2021/10/16 00:58:37;;;;;;;;;;;10.40;96.80;10.80;99763.00;;;;344348;28;91224;-93
2021/10/16 00:58:48;;;;;;;;;;;10.40;96.80;10.90;99762.00;;;;347561;28;82565;-92
2021/10/16 00:59:02;;;;;;;;;;;10.40;96.80;10.90;99766.00;;;;344648;28;90263;-92
2021/10/16 00:59:13;;;;;;;;;;;10.40;96.80;10.80;99760.00;;;;344994;28;82402;-93
2021/10/16 00:59:25;;;;;;;;;;;10.40;96.70;10.70;99767.00;;;;347122;28;90709;-93
2021/10/16 00:59:37;;;;;;;;;;;10.40;96.80;10.80;99765.00;;;;346384;28;82506;-92